createdAt,value
2019-05-07T00:02:10.765Z,73.60
2019-05-07T00:04:38.955Z,74.30
2019-05-07T00:07:07.687Z,74.80
2019-05-07T00:09:38.046Z,75.00
2019-05-07T00:12:05.959Z,75.20
2019-05-07T00:14:34.636Z,75.80
2019-05-07T00:17:04.419Z,75.90
2019-05-07T00:19:32.522Z,76.50
2019-05-07T00:22:02.379Z,76.70
2019-05-07T00:24:30.078Z,77.00
2019-05-07T00:26:59.661Z,76.90
2019-05-07T00:29:27.704Z,76.90
2019-05-07T00:31:55.921Z,77.10
2019-05-07T00:34:26.499Z,77.20
2019-05-07T00:37:02.061Z,77.10
2019-05-07T00:39:32.786Z,77.20
2019-05-07T00:42:21.468Z,77.50
2019-05-07T00:45:14.094Z,78.00
2019-05-07T00:47:33.032Z,78.40
2019-05-07T00:50:03.306Z,78.60
2019-05-07T00:52:33.349Z,78.70
2019-05-07T00:55:02.919Z,78.80
2019-05-07T00:57:32.395Z,79.00
2019-05-07T01:00:02.775Z,79.10
2019-05-07T01:02:32.331Z,80.20
2019-05-07T01:05:00.119Z,79.60
2019-05-07T01:07:32.446Z,79.70
2019-05-07T01:10:02.160Z,79.90
2019-05-07T01:12:29.832Z,79.80
2019-05-07T01:14:58.131Z,80.00
2019-05-07T01:17:27.227Z,80.30
2019-05-07T01:19:55.358Z,80.40
2019-05-07T01:22:23.335Z,80.60
2019-05-07T01:24:52.590Z,80.80
2019-05-07T01:27:22.427Z,80.90
2019-05-07T01:29:52.156Z,81.00
2019-05-07T01:32:37.617Z,81.20
2019-05-07T01:35:19.401Z,81.30
2019-05-07T01:37:49.226Z,81.70
2019-05-07T01:40:18.544Z,81.90
2019-05-07T01:42:46.460Z,81.90
2019-05-07T01:45:15.458Z,82.20
2019-05-07T01:47:43.316Z,82.30
2019-05-07T01:50:13.249Z,82.50
2019-05-07T01:52:42.794Z,82.60
2019-05-07T01:55:12.828Z,83.00
2019-05-07T01:57:42.141Z,83.30
2019-05-07T02:00:12.911Z,83.30
2019-05-07T02:02:42.583Z,83.50
2019-05-07T02:05:22.816Z,83.50
2019-05-07T02:07:52.143Z,83.70
2019-05-07T02:10:34.242Z,83.80
2019-05-07T02:13:02.409Z,84.10
2019-05-07T02:15:32.249Z,84.30
2019-05-07T02:18:01.999Z,84.50
2019-05-07T02:20:31.983Z,84.60
2019-05-07T02:22:59.840Z,84.70
2019-05-07T02:25:27.725Z,84.90
2019-05-07T02:27:55.699Z,85.10
2019-05-07T02:30:24.141Z,85.30
2019-05-07T02:32:54.024Z,85.40
2019-05-07T02:35:23.487Z,85.60
2019-05-07T02:37:56.630Z,85.70
2019-05-07T02:40:26.832Z,85.70
2019-05-07T02:42:57.387Z,86.00
2019-05-07T02:45:33.249Z,86.30
2019-05-07T02:48:03.439Z,86.30
2019-05-07T02:50:33.151Z,86.60
2019-05-07T02:53:04.169Z,86.80
2019-05-07T02:55:52.656Z,86.90
2019-05-07T02:58:19.383Z,87.30
2019-05-07T03:00:47.487Z,87.60
2019-05-07T03:03:15.501Z,87.70
2019-05-07T03:05:43.600Z,87.60
2019-05-07T03:08:13.759Z,88.20
2019-05-07T03:10:43.435Z,88.40
2019-05-07T03:13:13.756Z,88.60
2019-05-07T03:15:43.232Z,88.50
2019-05-07T03:18:13.822Z,88.60
2019-05-07T03:20:48.713Z,88.70
2019-05-07T03:23:18.191Z,88.90
2019-05-07T03:26:04.228Z,89.00
2019-05-07T03:28:33.908Z,89.10
2019-05-07T03:31:16.795Z,89.10
2019-05-07T03:33:55.823Z,89.10
2019-05-07T03:36:26.077Z,89.20
2019-05-07T03:38:53.791Z,89.20
2019-05-07T03:41:23.438Z,89.30
2019-05-07T03:43:52.663Z,89.40
2019-05-07T03:46:23.526Z,89.30
2019-05-07T03:48:52.927Z,89.10
2019-05-07T03:51:19.553Z,88.90
2019-05-07T03:53:47.434Z,88.90
2019-05-07T03:56:15.477Z,88.60
2019-05-07T03:58:45.929Z,88.40
2019-05-07T04:01:13.931Z,88.20
2019-05-07T04:03:44.707Z,88.00
2019-05-07T04:06:12.758Z,87.60
2019-05-07T04:08:43.373Z,87.30
2019-05-07T04:11:13.438Z,87.10
2019-05-07T04:13:43.716Z,86.70
2019-05-07T04:16:13.408Z,85.90
2019-05-07T04:18:39.866Z,85.40
2019-05-07T04:21:07.788Z,84.80
2019-05-07T04:23:35.702Z,84.10
2019-05-07T04:26:07.783Z,83.70
2019-05-07T04:28:54.169Z,83.60
2019-05-07T04:31:23.224Z,83.40
2019-05-07T04:33:53.395Z,83.40
2019-05-07T04:36:23.167Z,83.40
2019-05-07T04:38:53.281Z,82.90
2019-05-07T04:41:23.327Z,82.00
2019-05-07T04:43:53.824Z,81.00
2019-05-07T04:46:23.295Z,80.40
2019-05-07T04:48:52.612Z,80.10
2019-05-07T04:51:23.107Z,80.10
2019-05-07T04:53:53.850Z,79.80
2019-05-07T04:56:19.917Z,79.70
2019-05-07T04:58:47.900Z,79.40
2019-05-07T05:01:17.672Z,79.10
2019-05-07T05:03:45.556Z,78.90
2019-05-07T05:06:13.866Z,78.90
2019-05-07T05:08:43.491Z,77.80
2019-05-07T05:11:12.751Z,76.60
2019-05-07T05:13:44.024Z,75.00
2019-05-07T05:16:27.096Z,73.30
2019-05-07T05:18:55.307Z,72.40
2019-05-07T05:21:36.820Z,71.40
2019-05-07T05:24:08.983Z,70.00
2019-05-07T05:26:36.883Z,68.50
2019-05-07T05:29:04.957Z,67.10
2019-05-07T05:31:35.665Z,66.30
2019-05-07T05:34:03.966Z,66.50
2019-05-07T05:36:32.975Z,66.50
2019-05-07T05:39:02.484Z,66.50
2019-05-07T05:41:33.809Z,66.70
2019-05-07T05:44:02.853Z,67.30
2019-05-07T05:46:32.575Z,67.60
2019-05-07T05:49:02.625Z,67.60
2019-05-07T05:51:37.978Z,67.80
2019-05-07T05:54:12.668Z,67.00
2019-05-07T05:56:44.410Z,66.50
2019-05-07T05:59:23.753Z,66.90
2019-05-07T06:01:48.559Z,67.00
2019-05-07T06:04:18.319Z,66.60
2019-05-07T06:07:07.921Z,66.10
2019-05-07T06:09:37.431Z,65.20
2019-05-07T06:12:13.102Z,65.20
2019-05-07T06:14:45.722Z,64.70
2019-05-07T06:17:15.668Z,64.40
2019-05-07T06:20:02.976Z,64.30
2019-05-07T06:22:42.514Z,64.00
2019-05-07T06:25:14.809Z,63.40
2019-05-07T06:27:41.881Z,63.90
2019-05-07T06:30:12.089Z,63.90
2019-05-07T06:32:39.863Z,63.90
2019-05-07T06:35:07.749Z,64.10
2019-05-07T06:37:37.531Z,63.90
2019-05-07T06:40:19.412Z,63.00
2019-05-07T06:42:57.554Z,60.60
2019-05-07T06:45:27.206Z,58.50
2019-05-07T06:47:55.282Z,58.60
2019-05-07T06:50:23.358Z,57.90
2019-05-07T06:52:54.273Z,58.50
2019-05-07T06:55:22.793Z,56.30
2019-05-07T06:57:53.050Z,54.20
2019-05-07T07:00:25.470Z,51.40
2019-05-07T07:02:58.587Z,48.70
2019-05-07T07:05:34.384Z,47.70
2019-05-07T07:08:04.412Z,46.50
2019-05-07T07:10:52.114Z,45.80
2019-05-07T07:13:22.831Z,45.40
2019-05-07T07:15:52.216Z,43.60
2019-05-07T07:18:22.900Z,42.00
2019-05-07T07:20:52.318Z,40.10
2019-05-07T07:23:19.948Z,36.20
2019-05-07T07:25:48.238Z,32.00
2019-05-07T07:28:18.708Z,27.70
2019-05-07T07:30:48.277Z,25.90
2019-05-07T07:33:26.673Z,23.70
2019-05-07T07:35:54.871Z,22.20
2019-05-07T07:38:35.913Z,20.50
2019-05-07T07:41:17.330Z,19.30
2019-05-07T07:43:45.748Z,19.10
2019-05-07T07:46:16.410Z,18.40
2019-05-07T07:48:43.805Z,17.10
2019-05-07T07:51:13.877Z,16.20
2019-05-07T07:53:43.364Z,16.10
2019-05-07T07:56:23.037Z,16.30
2019-05-07T07:59:09.569Z,16.10
2019-05-07T08:01:42.253Z,16.60
2019-05-07T08:04:12.289Z,16.50
2019-05-07T08:06:42.152Z,16.80
2019-05-07T08:09:12.750Z,16.60
2019-05-07T08:11:42.390Z,17.40
2019-05-07T08:14:12.413Z,17.80
2019-05-07T08:16:42.840Z,18.80
2019-05-07T08:19:20.933Z,19.70
2019-05-07T08:21:42.062Z,20.80
2019-05-07T08:24:12.284Z,22.70
2019-05-07T08:26:42.673Z,24.20
2019-05-07T08:29:11.944Z,26.00
2019-05-07T08:31:51.754Z,27.80
2019-05-07T08:34:23.999Z,26.90
2019-05-07T08:36:53.602Z,26.00
2019-05-07T08:39:22.313Z,25.80
2019-05-07T08:41:52.718Z,24.30
2019-05-07T08:44:39.138Z,25.20
2019-05-07T08:47:14.091Z,26.00
2019-05-07T08:49:43.542Z,23.80
2019-05-07T08:52:19.359Z,23.50
2019-05-07T08:54:48.029Z,23.10
2019-05-07T08:57:16.209Z,21.80
2019-05-07T08:59:57.431Z,21.20
2019-05-07T09:02:14.219Z,20.80
2019-05-07T09:04:42.683Z,20.30
2019-05-07T09:07:12.797Z,20.10
2019-05-07T09:09:42.752Z,19.30
2019-05-07T09:12:12.199Z,18.00
2019-05-07T09:14:42.345Z,17.70
2019-05-07T09:17:10.058Z,17.80
2019-05-07T09:19:50.387Z,18.10
2019-05-07T09:22:12.497Z,19.00
2019-05-07T09:24:42.398Z,20.80
2019-05-07T09:27:12.593Z,22.40
2019-05-07T09:29:58.902Z,24.30
2019-05-07T09:32:37.702Z,25.80
2019-05-07T09:35:19.311Z,25.20
2019-05-07T09:37:48.832Z,24.20
2019-05-07T09:40:16.981Z,23.60
2019-05-07T09:42:45.085Z,23.30
2019-05-07T09:45:13.640Z,23.90
2019-05-07T09:47:41.980Z,24.30
2019-05-07T09:50:12.067Z,24.50
2019-05-07T09:52:42.512Z,25.00
2019-05-07T09:55:16.623Z,26.10
2019-05-07T09:57:42.265Z,26.60
2019-05-07T10:00:12.261Z,27.30
2019-05-07T10:02:42.318Z,27.30
2019-05-07T10:05:10.455Z,25.10
2019-05-07T10:07:39.448Z,22.20
2019-05-07T10:10:11.971Z,19.20
2019-05-07T10:12:48.151Z,17.40
2019-05-07T10:15:17.010Z,16.50
2019-05-07T10:17:52.972Z,15.60
2019-05-07T10:20:22.506Z,15.10
2019-05-07T10:22:52.023Z,14.80
2019-05-07T10:25:22.273Z,16.30
2019-05-07T10:27:50.212Z,17.80
2019-05-07T10:30:18.683Z,19.10
2019-05-07T10:32:47.376Z,18.90
2019-05-07T10:35:15.763Z,18.50
2019-05-07T10:37:49.432Z,17.30
2019-05-07T10:43:15.533Z,16.20
2019-05-07T10:45:57.475Z,16.20
2019-05-07T10:48:39.252Z,16.00
2019-05-07T10:51:08.712Z,15.30
2019-05-07T10:53:37.160Z,15.20
2019-05-07T10:56:05.557Z,14.60
2019-05-07T10:58:34.076Z,14.50
2019-05-07T11:01:03.049Z,14.00
2019-05-07T11:03:32.380Z,13.10
2019-05-07T11:06:01.153Z,13.80
2019-05-07T11:08:29.415Z,14.60
2019-05-07T11:10:57.602Z,15.50
2019-05-07T11:13:25.729Z,16.50
2019-05-07T11:15:55.726Z,18.60
2019-05-07T11:18:25.730Z,20.70
2019-05-07T11:20:54.190Z,22.50
2019-05-07T11:23:23.588Z,23.50
2019-05-07T11:25:52.665Z,24.80
2019-05-07T11:28:22.690Z,25.70
2019-05-07T11:30:51.179Z,25.80
2019-05-07T11:33:21.862Z,26.30
2019-05-07T11:35:52.653Z,26.70
2019-05-07T11:38:24.218Z,26.90
2019-05-07T11:40:59.545Z,26.90
2019-05-07T11:43:37.674Z,26.70
2019-05-07T11:46:16.153Z,26.60
2019-05-07T11:48:51.573Z,26.80
2019-05-07T11:51:23.125Z,26.50
2019-05-07T11:54:12.411Z,26.70
2019-05-07T11:56:42.024Z,27.30
2019-05-07T11:59:09.677Z,27.90
2019-05-07T12:01:44.558Z,28.20
2019-05-07T12:04:09.703Z,28.20
2019-05-07T12:06:37.926Z,26.80
2019-05-07T12:09:08.427Z,26.00
2019-05-07T12:11:36.690Z,25.90
2019-05-07T12:14:04.986Z,26.00
2019-05-07T12:16:33.717Z,26.40
2019-05-07T12:19:02.385Z,26.90
2019-05-07T12:21:30.743Z,27.30
2019-05-07T12:23:58.940Z,27.10
2019-05-07T12:26:27.673Z,27.30
2019-05-07T12:28:57.839Z,27.90
2019-05-07T12:31:41.602Z,27.90
2019-05-07T12:34:14.649Z,27.90
2019-05-07T12:36:42.780Z,27.90
2019-05-07T12:39:12.784Z,27.60
2019-05-07T12:41:42.143Z,28.20
2019-05-07T12:44:12.940Z,28.10
2019-05-07T12:46:43.680Z,27.90
2019-05-07T12:49:12.357Z,27.50
2019-05-07T12:51:44.832Z,27.40
2019-05-07T12:54:14.916Z,27.40
2019-05-07T12:56:43.342Z,27.10
2019-05-07T12:59:15.038Z,27.00
2019-05-07T13:01:54.211Z,26.90
2019-05-07T13:04:23.885Z,27.00
2019-05-07T13:06:56.809Z,26.60
2019-05-07T13:09:25.311Z,26.90
2019-05-07T13:11:53.934Z,27.40
2019-05-07T13:14:22.571Z,28.00
2019-05-07T13:16:52.268Z,27.20
2019-05-07T13:19:22.583Z,27.00
2019-05-07T13:21:50.920Z,27.30
2019-05-07T13:24:18.964Z,27.40
2019-05-07T13:27:40.242Z,27.00
2019-05-07T13:30:08.804Z,26.80
2019-05-07T13:32:37.300Z,26.60
2019-05-07T13:35:06.485Z,26.90
2019-05-07T13:37:36.167Z,27.60
2019-05-07T13:40:06.504Z,26.90
2019-05-07T13:42:38.883Z,26.20
2019-05-07T13:45:08.759Z,27.10
2019-05-07T13:47:37.402Z,27.10
2019-05-07T13:50:06.649Z,27.60
2019-05-07T13:52:34.784Z,28.00
2019-05-07T13:55:02.771Z,28.30
2019-05-07T13:57:32.203Z,28.30
2019-05-07T14:00:02.426Z,28.10
2019-05-07T14:02:32.005Z,28.20
2019-05-07T14:05:00.172Z,28.40
2019-05-07T14:07:32.136Z,27.90
2019-05-07T14:10:02.053Z,27.60
2019-05-07T14:12:31.845Z,27.80
2019-05-07T14:14:59.498Z,27.50
2019-05-07T14:17:27.797Z,27.80
2019-05-07T14:19:56.634Z,27.20
2019-05-07T14:22:25.534Z,27.60
2019-05-07T14:24:53.981Z,27.90
2019-05-07T14:27:25.119Z,28.30
2019-05-07T14:29:53.391Z,28.50
2019-05-07T14:32:28.869Z,28.50
2019-05-07T14:35:04.761Z,28.90
2019-05-07T14:37:34.777Z,28.90
2019-05-07T14:40:03.195Z,28.70
2019-05-07T14:42:33.055Z,28.70
2019-05-07T14:45:01.663Z,28.80
2019-05-07T14:47:30.318Z,28.40
2019-05-07T14:49:58.675Z,28.20
2019-05-07T14:52:32.654Z,28.10
2019-05-07T14:54:57.974Z,28.40
2019-05-07T14:57:26.036Z,28.30
2019-05-07T14:59:54.291Z,28.50
2019-05-07T15:02:23.600Z,28.60
2019-05-07T15:04:52.546Z,28.40
2019-05-07T15:07:22.630Z,28.30
2019-05-07T15:09:51.869Z,28.10
2019-05-07T15:12:20.053Z,27.90
2019-05-07T15:14:48.161Z,27.80
2019-05-07T15:17:22.225Z,27.80
2019-05-07T15:19:52.078Z,27.90
2019-05-07T15:22:49.195Z,27.40
2019-05-07T15:25:06.894Z,27.30
2019-05-07T15:27:35.154Z,27.20
2019-05-07T15:30:03.666Z,27.00
2019-05-07T15:32:32.371Z,26.80
2019-05-07T15:35:02.191Z,26.60
2019-05-07T15:37:32.175Z,26.40
2019-05-07T15:40:02.503Z,26.30
2019-05-07T15:42:33.192Z,26.40
2019-05-07T15:45:02.288Z,26.50
2019-05-07T15:47:42.120Z,26.80
2019-05-07T15:50:12.471Z,26.90
2019-05-07T15:52:41.980Z,26.40
2019-05-07T15:55:11.917Z,26.20
2019-05-07T15:57:40.244Z,26.20
2019-05-07T16:00:09.935Z,25.80
2019-05-07T16:02:45.502Z,25.60
2019-05-07T16:05:14.140Z,25.70
2019-05-07T16:07:42.924Z,26.10
2019-05-07T16:10:12.091Z,26.10
2019-05-07T16:12:42.284Z,26.60
2019-05-07T16:15:13.673Z,27.00
2019-05-07T16:17:42.891Z,27.50
2019-05-07T16:20:12.066Z,27.50
2019-05-07T16:22:42.763Z,27.70
2019-05-07T16:25:11.747Z,27.90
2019-05-07T16:27:43.530Z,27.90
2019-05-07T16:30:13.992Z,27.10
2019-05-07T16:32:42.381Z,26.60
2019-05-07T16:35:12.471Z,26.80
2019-05-07T16:37:42.704Z,26.20
2019-05-07T16:40:12.497Z,26.20
2019-05-07T16:42:42.684Z,26.40
2019-05-07T16:45:10.133Z,26.80
2019-05-07T16:47:38.538Z,27.20
2019-05-07T16:50:07.053Z,27.30
2019-05-07T16:52:35.372Z,27.50
2019-05-07T16:55:04.402Z,28.00
2019-05-07T16:57:34.162Z,28.20
2019-05-07T17:00:02.851Z,28.40
2019-05-07T17:02:41.788Z,28.30
2019-05-07T17:05:14.402Z,28.40
2019-05-07T17:07:59.525Z,28.40
2019-05-07T17:10:28.672Z,28.70
2019-05-07T17:12:56.963Z,28.60
2019-05-07T17:15:27.003Z,28.90
2019-05-07T17:18:02.771Z,29.40
2019-05-07T17:20:34.952Z,29.20
2019-05-07T17:23:03.308Z,29.30
2019-05-07T17:25:37.396Z,29.40
2019-05-07T17:28:06.316Z,29.30
2019-05-07T17:30:34.403Z,29.50
2019-05-07T17:33:02.402Z,29.50
2019-05-07T17:35:34.925Z,29.60
2019-05-07T17:38:08.956Z,29.80
2019-05-07T17:40:34.423Z,29.80
2019-05-07T17:43:03.170Z,29.90
2019-05-07T17:48:18.805Z,30.10
2019-05-07T17:50:52.466Z,29.80
2019-05-07T17:53:25.269Z,29.80
2019-05-07T17:55:54.710Z,30.00
2019-05-07T17:58:22.623Z,30.40
2019-05-07T18:00:53.023Z,30.40
2019-05-07T18:03:34.272Z,30.50
2019-05-07T18:06:02.769Z,31.00
2019-05-07T18:08:33.160Z,31.70
2019-05-07T18:11:17.309Z,31.80
2019-05-07T18:13:34.461Z,32.10
2019-05-07T18:16:04.152Z,32.30
2019-05-07T18:18:32.796Z,32.40
2019-05-07T18:21:02.302Z,32.30
2019-05-07T18:23:32.201Z,32.70
2019-05-07T18:26:00.191Z,32.90
2019-05-07T18:28:29.775Z,32.90
2019-05-07T18:30:57.791Z,33.20
2019-05-07T18:33:42.342Z,33.20
2019-05-07T18:36:12.003Z,33.30
2019-05-07T18:38:39.664Z,36.00
2019-05-07T18:41:07.572Z,37.90
2019-05-07T18:43:37.683Z,41.50
2019-05-07T18:46:08.704Z,44.40
2019-05-07T18:48:36.815Z,45.20
2019-05-07T18:51:04.885Z,45.60
2019-05-07T18:53:33.372Z,46.90
2019-05-07T18:56:01.835Z,47.70
2019-05-07T18:58:31.956Z,48.30
2019-05-07T19:01:10.170Z,48.70
2019-05-07T19:03:38.283Z,49.10
2019-05-07T19:06:06.434Z,49.20
2019-05-07T19:08:35.629Z,49.50
2019-05-07T19:11:05.785Z,50.10
2019-05-07T19:13:33.635Z,50.40
2019-05-07T19:16:07.804Z,50.50
2019-05-07T19:18:35.926Z,50.90
2019-05-07T19:21:06.772Z,51.40
2019-05-07T19:23:34.353Z,51.70
2019-05-07T19:26:02.580Z,51.90
2019-05-07T19:28:32.783Z,52.50
2019-05-07T19:31:00.506Z,52.60
2019-05-07T19:33:28.681Z,52.90
2019-05-07T19:35:56.742Z,53.30
2019-05-07T19:38:24.873Z,53.80
2019-05-07T19:40:53.553Z,54.20
2019-05-07T19:43:21.715Z,54.40
2019-05-07T19:45:52.227Z,55.00
2019-05-07T19:48:19.644Z,55.10
2019-05-07T19:50:48.787Z,55.50
2019-05-07T19:53:16.658Z,55.70
2019-05-07T19:56:04.385Z,55.80
2019-05-07T19:58:32.800Z,56.00
2019-05-07T20:01:01.940Z,56.40
2019-05-07T20:03:30.060Z,57.20
2019-05-07T20:05:58.251Z,56.80
2019-05-07T20:08:26.379Z,57.10
2019-05-07T20:10:59.220Z,57.40
2019-05-07T20:13:27.456Z,57.40
2019-05-07T20:15:57.179Z,57.90
2019-05-07T20:18:25.416Z,58.20
2019-05-07T20:20:53.420Z,58.40
2019-05-07T20:23:22.781Z,58.70
2019-05-07T20:25:52.849Z,59.20
2019-05-07T20:28:21.791Z,59.40
2019-05-07T20:30:50.033Z,59.70
2019-05-07T20:33:18.286Z,60.00
2019-05-07T20:35:46.823Z,60.30
2019-05-07T20:38:14.829Z,60.40
2019-05-07T20:40:42.889Z,60.60
2019-05-07T20:43:12.648Z,61.00
2019-05-07T20:45:42.462Z,61.20
2019-05-07T20:48:10.018Z,61.00
2019-05-07T20:50:38.067Z,61.20
2019-05-07T20:53:06.141Z,61.30
2019-05-07T20:55:35.731Z,61.70
2019-05-07T20:58:03.707Z,61.80
2019-05-07T21:00:32.593Z,61.90
2019-05-07T21:03:19.124Z,62.20
2019-05-07T21:05:48.328Z,62.50
2019-05-07T21:08:16.158Z,62.70
2019-05-07T21:10:44.080Z,62.80
2019-05-07T21:13:26.862Z,63.00
2019-05-07T21:15:41.921Z,63.10
2019-05-07T21:18:12.298Z,63.30
2019-05-07T21:20:42.061Z,63.40
2019-05-07T21:23:12.065Z,63.60
2019-05-07T21:25:45.514Z,63.80
2019-05-07T21:28:12.005Z,63.90
2019-05-07T21:30:39.403Z,63.90
2019-05-07T21:33:07.622Z,63.80
2019-05-07T21:35:35.750Z,63.90
2019-05-07T21:38:03.752Z,63.90
2019-05-07T21:40:32.157Z,63.90
2019-05-07T21:43:00.615Z,63.80
2019-05-07T21:45:28.598Z,63.90
2019-05-07T21:47:56.812Z,63.90
2019-05-07T21:50:24.869Z,64.00
2019-05-07T21:52:57.414Z,63.80
2019-05-07T21:55:26.946Z,63.70
2019-05-07T21:58:02.435Z,63.90
2019-05-07T22:00:34.958Z,63.90
2019-05-07T22:03:04.716Z,64.40
2019-05-07T22:05:34.341Z,64.30
2019-05-07T22:08:02.480Z,64.90
2019-05-07T22:10:32.870Z,65.00
2019-05-07T22:13:02.716Z,65.00
2019-05-07T22:15:31.870Z,65.80
2019-05-07T22:17:59.990Z,64.90
2019-05-07T22:20:28.016Z,65.00
2019-05-07T22:22:56.084Z,65.30
2019-05-07T22:25:24.105Z,65.80
2019-05-07T22:27:52.956Z,66.10
2019-05-07T22:30:28.494Z,66.70
2019-05-07T22:33:10.191Z,66.70
2019-05-07T22:35:45.355Z,67.20
2019-05-07T22:38:13.420Z,67.30
2019-05-07T22:40:43.341Z,67.70
2019-05-07T22:43:12.954Z,68.20
2019-05-07T22:45:42.826Z,68.90
2019-05-07T22:48:12.200Z,69.20
2019-05-07T22:50:42.098Z,69.30
2019-05-07T22:53:12.492Z,69.50
2019-05-07T22:55:41.804Z,69.70
2019-05-07T22:58:14.357Z,70.10
2019-05-07T23:00:46.892Z,70.40
2019-05-07T23:03:14.937Z,70.90
2019-05-07T23:05:44.889Z,71.30
2019-05-07T23:08:12.833Z,71.60
2019-05-07T23:10:42.132Z,71.90
2019-05-07T23:13:12.833Z,71.90
2019-05-07T23:15:40.159Z,72.00
2019-05-07T23:18:08.165Z,72.30
2019-05-07T23:20:36.107Z,72.50
2019-05-07T23:23:04.047Z,73.10
2019-05-07T23:25:32.324Z,73.90
2019-05-07T23:28:04.956Z,73.90
2019-05-07T23:30:29.840Z,74.10
2019-05-07T23:32:57.670Z,74.80
2019-05-07T23:35:25.535Z,75.60
2019-05-07T23:37:53.458Z,76.40
2019-05-07T23:40:41.859Z,76.80
2019-05-07T23:43:14.675Z,76.90
2019-05-07T23:45:44.352Z,76.90
2019-05-07T23:48:12.450Z,77.00
2019-05-07T23:50:41.890Z,77.00
2019-05-07T23:53:09.869Z,76.30
2019-05-07T23:55:37.808Z,76.20
2019-05-07T23:58:05.637Z,76.10
